Pricedale, Pennsylvania
Current Conditions -  °F | °C
As of 7:53 PM on Monday 24 Nov 2014 (Local Time) from KAGC Reporting Station
Clear Clear  
Wind Chill: 13°   Ceiling: Unl
Heat Index: 13°   Visibility: 10mi
Dew Point: -1°   Wind: 16mph
Humidity: 37%   Direction: 230°SW
Pressure: 29.69"   Gusts: 32mph
Location:  40.13°N, 79.84°W
Report Text: KAGC 250053Z 23014G28KT 10SM CLR 13/M01 A2969 RMK AO2 PK WND 24028/0044 SLP055 T01331011
Loading
Personal Weather Stations






























Interactive Weather Map New forecast layout! Learn more

10-Day Weather Forecast

Advertisements
Track Severe Weather on mobile